createdAt,value
2017-11-06T00:00:17.417Z,11.20
2017-11-06T00:00:56.408Z,10.50
2017-11-06T00:01:56.399Z,10.10
2017-11-06T00:02:56.396Z,12.80
2017-11-06T00:03:56.389Z,12.40
2017-11-06T00:04:56.383Z,12.90
2017-11-06T00:06:17.386Z,11.70
2017-11-06T00:06:56.374Z,11.90
2017-11-06T00:07:56.366Z,13.00
2017-11-06T00:08:56.361Z,11.60
2017-11-06T00:09:56.352Z,12.60
2017-11-06T00:10:56.352Z,12.60
2017-11-06T00:12:17.354Z,11.00
2017-11-06T00:12:56.337Z,14.10
2017-11-06T00:13:56.333Z,11.80
2017-11-06T00:14:56.339Z,11.30
2017-11-06T00:15:56.321Z,11.50
2017-11-06T00:16:56.317Z,16.80
2017-11-06T00:18:17.362Z,11.60
2017-11-06T00:18:56.301Z,10.60
2017-11-06T00:19:56.301Z,13.10
2017-11-06T00:20:56.294Z,12.70
2017-11-06T00:21:56.288Z,10.30
2017-11-06T00:22:56.283Z,12.20
2017-11-06T00:24:17.281Z,10.30
2017-11-06T00:24:56.272Z,11.50
2017-11-06T00:25:56.266Z,12.20
2017-11-06T00:26:56.256Z,11.50
2017-11-06T00:27:56.253Z,12.00
2017-11-06T00:28:56.247Z,13.60
2017-11-06T00:30:17.245Z,12.60
2017-11-06T00:30:56.234Z,12.20
2017-11-06T00:31:56.231Z,12.00
2017-11-06T00:32:56.225Z,12.50
2017-11-06T00:33:56.223Z,13.70
2017-11-06T00:34:56.214Z,14.00
2017-11-06T00:36:17.214Z,11.50
2017-11-06T00:36:56.203Z,12.50
2017-11-06T00:37:56.200Z,13.10
2017-11-06T00:38:56.194Z,14.30
2017-11-06T00:39:56.184Z,11.90
2017-11-06T00:40:56.177Z,13.50
2017-11-06T00:42:17.179Z,12.10
2017-11-06T00:42:56.169Z,11.80
2017-11-06T00:43:56.161Z,12.10
2017-11-06T00:44:56.156Z,12.30
2017-11-06T00:45:56.149Z,11.50
2017-11-06T00:46:56.146Z,12.30
2017-11-06T00:48:17.152Z,12.30
2017-11-06T00:48:56.131Z,11.10
2017-11-06T00:49:56.129Z,13.70
2017-11-06T00:50:56.133Z,13.00
2017-11-06T00:51:56.116Z,13.50
2017-11-06T00:52:56.111Z,13.40
2017-11-06T00:54:17.109Z,12.70
2017-11-06T00:54:56.096Z,13.70
2017-11-06T00:55:56.094Z,14.40
2017-11-06T00:56:56.088Z,11.90
2017-11-06T00:57:56.081Z,13.80
2017-11-06T00:58:56.077Z,12.20
2017-11-06T01:00:17.077Z,13.70
2017-11-06T01:00:56.072Z,12.30
2017-11-06T01:01:56.059Z,10.90
2017-11-06T01:02:56.053Z,12.40
2017-11-06T01:03:56.048Z,13.20
2017-11-06T01:04:56.041Z,14.40
2017-11-06T01:06:17.044Z,12.60
2017-11-06T01:06:56.044Z,11.90
2017-11-06T01:07:56.023Z,11.90
2017-11-06T01:08:56.020Z,11.30
2017-11-06T01:09:56.015Z,10.80
2017-11-06T01:10:56.007Z,12.10
2017-11-06T01:12:17.010Z,11.90
2017-11-06T01:12:55.994Z,9.50
2017-11-06T01:13:55.990Z,9.80
2017-11-06T01:14:55.986Z,10.60
2017-11-06T01:15:55.979Z,12.30
2017-11-06T01:16:55.974Z,14.00
2017-11-06T01:18:16.974Z,12.90
2017-11-06T01:18:55.960Z,12.40
2017-11-06T01:19:56.868Z,11.90
2017-11-06T01:20:55.965Z,12.30
2017-11-06T01:21:55.941Z,11.50
2017-11-06T01:22:55.944Z,12.80
2017-11-06T01:24:16.939Z,13.40
2017-11-06T01:24:55.934Z,11.20
2017-11-06T01:25:55.922Z,14.90
2017-11-06T01:26:55.921Z,14.10
2017-11-06T01:27:55.909Z,13.20
2017-11-06T01:28:55.901Z,10.60
2017-11-06T01:30:16.910Z,11.00
2017-11-06T01:30:55.893Z,11.70
2017-11-06T01:31:55.892Z,14.10
2017-11-06T01:32:55.885Z,11.40
2017-11-06T01:33:55.878Z,11.40
2017-11-06T01:34:55.872Z,13.10
2017-11-06T01:36:16.871Z,12.10
2017-11-06T01:36:55.861Z,10.70
2017-11-06T01:37:55.850Z,13.30
2017-11-06T01:38:55.845Z,10.60
2017-11-06T01:39:55.844Z,11.00
2017-11-06T01:40:55.837Z,11.90
2017-11-06T01:42:16.837Z,12.10
2017-11-06T01:42:55.822Z,11.40
2017-11-06T01:43:55.821Z,12.00
2017-11-06T01:44:55.815Z,11.30
2017-11-06T01:45:55.808Z,10.40
2017-11-06T01:46:55.806Z,11.10
2017-11-06T01:48:16.803Z,13.40
2017-11-06T01:48:55.789Z,11.50
2017-11-06T01:49:55.786Z,11.40
2017-11-06T01:50:55.781Z,12.50
2017-11-06T01:51:55.773Z,13.60
2017-11-06T01:52:55.765Z,10.80
2017-11-06T01:54:16.770Z,15.30
2017-11-06T01:54:55.755Z,11.70
2017-11-06T01:55:55.750Z,14.10
2017-11-06T01:56:55.746Z,12.80
2017-11-06T01:57:55.739Z,10.70
2017-11-06T01:58:55.732Z,15.90
2017-11-06T02:00:16.735Z,12.10
2017-11-06T02:00:55.722Z,12.80
2017-11-06T02:01:55.716Z,13.20
2017-11-06T02:02:55.708Z,13.20
2017-11-06T02:03:55.706Z,12.10
2017-11-06T02:04:55.700Z,13.70
2017-11-06T02:06:16.698Z,12.20
2017-11-06T02:06:55.696Z,10.50
2017-11-06T02:07:55.678Z,10.70
2017-11-06T02:08:55.676Z,11.10
2017-11-06T02:09:55.670Z,9.30
2017-11-06T02:11:05.545Z,10.80
2017-11-06T02:12:16.662Z,11.50
2017-11-06T02:12:55.649Z,11.10
2017-11-06T02:13:55.645Z,11.50
2017-11-06T02:14:55.646Z,12.60
2017-11-06T02:15:55.634Z,11.50
2017-11-06T02:16:55.628Z,10.00
2017-11-06T02:18:16.631Z,12.80
2017-11-06T02:18:55.615Z,11.50
2017-11-06T02:19:55.608Z,10.50
2017-11-06T02:20:55.605Z,9.80
2017-11-06T02:21:55.600Z,10.20
2017-11-06T02:22:55.594Z,11.50
2017-11-06T02:24:16.595Z,9.90
2017-11-06T02:24:55.580Z,9.70
2017-11-06T02:25:55.575Z,10.50
2017-11-06T02:26:55.571Z,10.00
2017-11-06T02:27:55.565Z,11.10
2017-11-06T02:28:55.559Z,11.00
2017-11-06T02:30:16.558Z,10.80
2017-11-06T02:30:55.548Z,12.20
2017-11-06T02:31:55.551Z,9.60
2017-11-06T02:32:55.540Z,11.20
2017-11-06T02:33:55.528Z,9.60
2017-11-06T02:34:55.530Z,12.00
2017-11-06T02:36:16.524Z,10.40
2017-11-06T02:36:55.510Z,10.50
2017-11-06T02:37:55.503Z,8.90
2017-11-06T02:38:55.500Z,10.10
2017-11-06T02:39:55.494Z,10.80
2017-11-06T02:40:55.488Z,11.00
2017-11-06T02:42:16.488Z,9.60
2017-11-06T02:42:55.473Z,10.80
2017-11-06T02:43:55.466Z,10.00
2017-11-06T02:44:55.464Z,9.70
2017-11-06T02:45:55.458Z,8.90
2017-11-06T02:46:55.455Z,10.40
2017-11-06T02:48:16.454Z,12.10
2017-11-06T02:48:55.437Z,11.70
2017-11-06T02:49:55.451Z,10.40
2017-11-06T02:50:55.445Z,10.30
2017-11-06T02:51:55.432Z,9.40
2017-11-06T02:52:55.426Z,9.40
2017-11-06T02:54:16.413Z,10.00
2017-11-06T02:54:55.409Z,8.10
2017-11-06T02:55:55.401Z,9.30
2017-11-06T02:56:55.411Z,9.60
2017-11-06T02:57:55.406Z,10.50
2017-11-06T02:58:55.383Z,10.60
2017-11-06T03:00:16.386Z,8.50
2017-11-06T03:00:55.368Z,9.90
2017-11-06T03:01:55.363Z,9.20
2017-11-06T03:02:55.355Z,8.90
2017-11-06T03:03:55.352Z,9.10
2017-11-06T03:04:55.352Z,11.10
2017-11-06T03:06:16.344Z,10.90
2017-11-06T03:06:55.330Z,11.40
2017-11-06T03:07:55.331Z,10.60
2017-11-06T03:08:55.345Z,12.00
2017-11-06T03:09:55.337Z,10.90
2017-11-06T03:10:55.331Z,9.00
2017-11-06T03:12:16.310Z,12.20
2017-11-06T03:12:55.294Z,11.60
2017-11-06T03:13:55.304Z,9.40
2017-11-06T03:14:55.292Z,9.40
2017-11-06T03:15:55.291Z,10.70
2017-11-06T03:16:55.268Z,10.00
2017-11-06T03:18:16.273Z,8.80
2017-11-06T03:18:55.263Z,9.10
2017-11-06T03:19:55.256Z,9.60
2017-11-06T03:20:55.247Z,12.20
2017-11-06T03:21:55.240Z,11.30
2017-11-06T03:22:55.236Z,9.70
2017-11-06T03:24:16.245Z,9.90
2017-11-06T03:24:55.228Z,9.00
2017-11-06T03:25:55.219Z,11.40
2017-11-06T03:26:55.210Z,10.80
2017-11-06T03:27:55.227Z,10.60
2017-11-06T03:28:55.203Z,10.70
2017-11-06T03:30:16.204Z,10.00
2017-11-06T03:30:55.198Z,8.40
2017-11-06T03:31:55.178Z,10.60
2017-11-06T03:32:55.188Z,9.20
2017-11-06T03:33:55.170Z,11.50
2017-11-06T03:34:55.167Z,11.50
2017-11-06T03:36:16.167Z,8.50
2017-11-06T03:36:55.149Z,9.10
2017-11-06T03:37:55.147Z,11.40
2017-11-06T03:38:55.159Z,11.00
2017-11-06T03:39:55.139Z,10.80
2017-11-06T03:40:55.130Z,10.20
2017-11-06T03:42:16.126Z,8.80
2017-11-06T03:42:55.125Z,11.40
2017-11-06T03:43:55.113Z,8.60
2017-11-06T03:44:55.106Z,12.20
2017-11-06T03:45:55.097Z,9.50
2017-11-06T03:46:55.100Z,9.10
2017-11-06T03:48:16.094Z,9.00
2017-11-06T03:48:55.081Z,9.60
2017-11-06T03:49:55.078Z,10.60
2017-11-06T03:50:55.069Z,8.50
2017-11-06T03:51:55.058Z,11.00
2017-11-06T03:52:55.058Z,8.80
2017-11-06T03:54:16.066Z,10.30
2017-11-06T03:54:55.044Z,10.70
2017-11-06T03:55:55.038Z,8.40
2017-11-06T03:56:55.033Z,11.00
2017-11-06T03:57:55.026Z,11.10
2017-11-06T03:58:55.019Z,12.90
2017-11-06T04:00:16.021Z,11.40
2017-11-06T04:00:55.006Z,8.00
2017-11-06T04:01:54.997Z,7.80
2017-11-06T04:02:54.999Z,10.60
2017-11-06T04:03:54.987Z,12.20
2017-11-06T04:04:54.998Z,10.60
2017-11-06T04:06:15.983Z,10.90
2017-11-06T04:06:54.966Z,11.60
2017-11-06T04:07:54.968Z,12.60
2017-11-06T04:08:54.957Z,12.50
2017-11-06T04:09:54.964Z,14.00
2017-11-06T04:10:54.943Z,13.00
2017-11-06T04:12:15.944Z,12.50
2017-11-06T04:12:54.933Z,11.60
2017-11-06T04:13:54.927Z,11.50
2017-11-06T04:14:54.921Z,14.10
2017-11-06T04:15:54.915Z,13.00
2017-11-06T04:16:54.907Z,11.70
2017-11-06T04:18:15.911Z,10.60
2017-11-06T04:18:54.896Z,8.90
2017-11-06T04:19:54.887Z,12.90
2017-11-06T04:20:54.882Z,13.10
2017-11-06T04:21:54.880Z,13.80
2017-11-06T04:22:54.867Z,12.80
2017-11-06T04:24:15.871Z,11.30
2017-11-06T04:24:54.854Z,12.60
2017-11-06T04:25:54.852Z,13.20
2017-11-06T04:26:54.843Z,14.40
2017-11-06T04:27:54.836Z,12.00
2017-11-06T04:28:54.832Z,11.80
2017-11-06T04:30:15.833Z,12.70
2017-11-06T04:30:54.818Z,14.60
2017-11-06T04:31:54.813Z,14.30
2017-11-06T04:32:54.818Z,13.70
2017-11-06T04:33:54.800Z,13.40
2017-11-06T04:34:54.791Z,14.30
2017-11-06T04:36:15.795Z,12.80
2017-11-06T04:36:54.781Z,13.00
2017-11-06T04:37:54.775Z,13.20
2017-11-06T04:38:54.774Z,16.30
2017-11-06T04:39:54.759Z,14.70
2017-11-06T04:40:54.757Z,17.60
2017-11-06T04:42:15.754Z,15.50
2017-11-06T04:42:54.742Z,14.10
2017-11-06T04:43:54.738Z,15.80
2017-11-06T04:44:54.731Z,14.60
2017-11-06T04:45:54.724Z,12.70
2017-11-06T04:46:54.716Z,15.20
2017-11-06T04:48:15.720Z,14.40
2017-11-06T04:48:54.709Z,15.20
2017-11-06T04:49:54.701Z,15.60
2017-11-06T04:50:54.692Z,15.70
2017-11-06T04:51:54.688Z,15.40
2017-11-06T04:52:54.679Z,16.50
2017-11-06T04:54:15.678Z,15.80
2017-11-06T04:54:54.667Z,17.60
2017-11-06T04:55:54.663Z,17.10
2017-11-06T04:56:54.653Z,16.80
2017-11-06T04:57:54.652Z,17.90
2017-11-06T04:58:54.641Z,21.00
2017-11-06T05:00:15.642Z,19.50
2017-11-06T05:00:54.627Z,18.70
2017-11-06T05:01:54.624Z,18.10
2017-11-06T05:02:54.620Z,20.00
2017-11-06T05:03:54.610Z,19.20
2017-11-06T05:04:54.605Z,18.60
2017-11-06T05:06:15.604Z,16.20
2017-11-06T05:06:54.592Z,17.70
2017-11-06T05:07:54.587Z,15.90
2017-11-06T05:08:54.582Z,17.40
2017-11-06T05:09:54.572Z,18.80
2017-11-06T05:10:54.565Z,19.90
2017-11-06T05:12:15.569Z,18.00
2017-11-06T05:12:54.553Z,19.50
2017-11-06T05:13:54.543Z,20.50
2017-11-06T05:14:54.540Z,21.50
2017-11-06T05:15:54.533Z,20.50
2017-11-06T05:16:54.528Z,18.10
2017-11-06T05:18:15.524Z,20.40
2017-11-06T05:18:54.527Z,20.00
2017-11-06T05:19:54.513Z,17.50
2017-11-06T05:20:54.504Z,17.80
2017-11-06T05:21:54.498Z,22.20
2017-11-06T05:22:54.490Z,17.60
2017-11-06T05:24:15.488Z,17.40
2017-11-06T05:24:54.478Z,19.00
2017-11-06T05:25:54.470Z,19.90
2017-11-06T05:26:54.463Z,20.50
2017-11-06T05:27:54.454Z,19.90
2017-11-06T05:28:54.453Z,22.20
2017-11-06T05:30:15.449Z,20.40
2017-11-06T05:30:54.446Z,17.80
2017-11-06T05:31:54.430Z,17.90
2017-11-06T05:32:54.425Z,18.40
2017-11-06T05:33:54.422Z,17.20
2017-11-06T05:34:54.413Z,17.00
2017-11-06T05:36:15.417Z,17.40
2017-11-06T05:36:54.400Z,18.40
2017-11-06T05:37:54.391Z,20.10
2017-11-06T05:38:54.386Z,19.50
2017-11-06T05:39:54.393Z,17.70
2017-11-06T05:40:54.379Z,19.50
2017-11-06T05:42:15.404Z,19.90
2017-11-06T05:42:54.357Z,18.50
2017-11-06T05:43:54.357Z,20.20
2017-11-06T05:44:54.355Z,18.00
2017-11-06T05:45:54.355Z,18.80
2017-11-06T05:46:54.350Z,22.20
2017-11-06T05:48:15.336Z,20.30
2017-11-06T05:48:54.322Z,19.00
2017-11-06T05:49:54.318Z,20.80
2017-11-06T05:50:54.309Z,16.10
2017-11-06T05:51:54.306Z,19.00
2017-11-06T05:52:54.295Z,18.00
2017-11-06T05:54:15.295Z,18.90
2017-11-06T05:54:54.281Z,19.10
2017-11-06T05:55:54.294Z,18.00
2017-11-06T05:56:54.279Z,16.60
2017-11-06T05:57:54.269Z,19.20
2017-11-06T05:58:54.258Z,20.20
2017-11-06T06:00:15.272Z,18.00
2017-11-06T06:00:54.267Z,19.50
2017-11-06T06:01:54.243Z,21.10
2017-11-06T06:02:54.234Z,17.70
2017-11-06T06:03:54.244Z,18.40
2017-11-06T06:04:54.217Z,19.70
2017-11-06T06:06:15.217Z,18.50
2017-11-06T06:06:54.201Z,19.20
2017-11-06T06:07:54.198Z,19.00
2017-11-06T06:08:54.191Z,19.60
2017-11-06T06:09:54.185Z,19.10
2017-11-06T06:10:54.178Z,20.20
2017-11-06T06:12:15.180Z,19.50
2017-11-06T06:12:54.167Z,19.80
2017-11-06T06:13:54.160Z,18.50
2017-11-06T06:14:54.155Z,19.70
2017-11-06T06:15:54.162Z,19.00
2017-11-06T06:16:54.139Z,17.10
2017-11-06T06:18:15.138Z,18.40
2017-11-06T06:18:54.135Z,20.90
2017-11-06T06:19:54.137Z,19.50
2017-11-06T06:20:54.119Z,18.10
2017-11-06T06:21:54.105Z,20.50
2017-11-06T06:22:54.101Z,19.00
2017-11-06T06:24:15.103Z,19.40
2017-11-06T06:24:54.094Z,20.20
2017-11-06T06:25:54.078Z,17.40
2017-11-06T06:26:54.071Z,17.80
2017-11-06T06:27:54.066Z,21.60
2017-11-06T06:28:54.061Z,17.70
2017-11-06T06:30:15.056Z,17.70
2017-11-06T06:30:54.045Z,20.40
2017-11-06T06:31:54.042Z,20.60
2017-11-06T06:32:54.035Z,19.30
2017-11-06T06:33:54.035Z,20.50
2017-11-06T06:34:54.017Z,19.20
2017-11-06T06:36:15.027Z,19.70
2017-11-06T06:36:54.020Z,18.10
2017-11-06T06:37:54.001Z,17.70
2017-11-06T06:38:53.994Z,20.20
2017-11-06T06:39:53.985Z,16.10
2017-11-06T06:40:53.980Z,19.50
2017-11-06T06:42:14.983Z,18.30
2017-11-06T06:42:53.967Z,20.40
2017-11-06T06:43:53.962Z,17.40
2017-11-06T06:44:53.955Z,20.30
2017-11-06T06:45:53.946Z,19.90
2017-11-06T06:46:53.942Z,19.60
2017-11-06T06:48:14.944Z,18.50
2017-11-06T06:48:53.930Z,23.00
2017-11-06T06:49:53.921Z,20.20
2017-11-06T06:50:53.917Z,19.60
2017-11-06T06:51:53.911Z,21.10
2017-11-06T06:52:53.906Z,19.80
2017-11-06T06:54:14.904Z,20.10
2017-11-06T06:54:53.891Z,17.80
2017-11-06T06:55:53.885Z,19.30
2017-11-06T06:56:53.879Z,18.20
2017-11-06T06:57:53.872Z,20.10
2017-11-06T06:58:53.865Z,20.20
2017-11-06T07:00:14.863Z,19.70
2017-11-06T07:00:53.858Z,19.00
2017-11-06T07:01:53.846Z,20.10
2017-11-06T07:02:53.845Z,18.80
2017-11-06T07:03:53.831Z,19.80
2017-11-06T07:04:53.827Z,19.00
2017-11-06T07:06:14.826Z,19.80
2017-11-06T07:06:53.811Z,18.20
2017-11-06T07:07:53.806Z,21.10
2017-11-06T07:08:53.801Z,20.00
2017-11-06T07:09:53.793Z,22.40
2017-11-06T07:10:53.786Z,21.70
2017-11-06T07:12:14.787Z,19.20
2017-11-06T07:12:53.771Z,23.30
2017-11-06T07:13:53.766Z,20.80
2017-11-06T07:14:53.759Z,20.30
2017-11-06T07:15:53.757Z,18.70
2017-11-06T07:16:53.746Z,23.20
2017-11-06T07:18:14.746Z,21.20
2017-11-06T07:18:53.735Z,20.00
2017-11-06T07:19:53.728Z,22.10
2017-11-06T07:20:53.726Z,21.50
2017-11-06T07:21:53.714Z,21.60
2017-11-06T07:22:53.709Z,21.50
2017-11-06T07:24:14.709Z,21.00
2017-11-06T07:24:53.693Z,21.70
2017-11-06T07:25:53.689Z,20.30
2017-11-06T07:26:53.679Z,19.50
2017-11-06T07:27:53.684Z,19.30
2017-11-06T07:28:53.668Z,19.90
2017-11-06T07:30:14.669Z,24.10
2017-11-06T07:30:53.656Z,19.70
2017-11-06T07:31:53.648Z,20.20
2017-11-06T07:32:53.642Z,20.80
2017-11-06T07:33:53.637Z,18.90
2017-11-06T07:34:53.625Z,20.50
2017-11-06T07:36:14.630Z,20.70
2017-11-06T07:36:53.616Z,21.60
2017-11-06T07:37:53.606Z,23.50
2017-11-06T07:38:53.602Z,24.20
2017-11-06T07:39:53.592Z,26.80
2017-11-06T07:40:53.587Z,26.70
2017-11-06T07:42:14.587Z,27.80
2017-11-06T07:42:53.576Z,29.00
2017-11-06T07:43:53.574Z,23.50
2017-11-06T07:44:53.561Z,25.40
2017-11-06T07:45:53.554Z,23.80
2017-11-06T07:46:54.454Z,26.10
2017-11-06T07:48:14.550Z,22.40
2017-11-06T07:48:53.535Z,22.60
2017-11-06T07:49:53.529Z,22.50
2017-11-06T07:50:53.523Z,22.30
2017-11-06T07:51:53.519Z,24.20
2017-11-06T07:52:53.512Z,23.80
2017-11-06T07:54:14.510Z,23.40
2017-11-06T07:54:53.497Z,20.30
2017-11-06T07:55:53.491Z,20.20
2017-11-06T07:56:53.490Z,21.50
2017-11-06T07:57:53.479Z,22.00
2017-11-06T07:58:53.473Z,18.30
2017-11-06T08:00:14.472Z,17.90
2017-11-06T08:00:53.462Z,19.30
2017-11-06T08:01:53.453Z,20.20
2017-11-06T08:02:53.449Z,21.00
2017-11-06T08:03:53.442Z,17.60
2017-11-06T08:04:53.432Z,18.30
2017-11-06T08:06:14.437Z,17.60
2017-11-06T08:06:53.423Z,19.00
2017-11-06T08:07:53.416Z,16.40
2017-11-06T08:08:53.411Z,17.30
2017-11-06T08:09:53.402Z,19.70
2017-11-06T08:10:53.395Z,16.20
2017-11-06T08:12:14.402Z,16.20
2017-11-06T08:12:53.387Z,17.10
2017-11-06T08:13:53.381Z,17.90
2017-11-06T08:14:53.371Z,17.20
2017-11-06T08:15:53.370Z,16.90
2017-11-06T08:16:53.363Z,19.40
2017-11-06T08:18:14.362Z,16.70
2017-11-06T08:18:53.375Z,17.60
2017-11-06T08:19:53.343Z,17.60
2017-11-06T08:20:53.340Z,18.20
2017-11-06T08:21:53.329Z,18.00
2017-11-06T08:22:53.325Z,17.80
2017-11-06T08:24:14.331Z,21.80
2017-11-06T08:24:53.310Z,20.90
2017-11-06T08:25:53.306Z,19.50
2017-11-06T08:26:53.303Z,17.10
2017-11-06T08:27:53.294Z,20.30
2017-11-06T08:28:53.287Z,20.10
2017-11-06T08:30:14.305Z,19.60
2017-11-06T08:30:53.278Z,18.50
2017-11-06T08:31:53.273Z,19.30
2017-11-06T08:32:53.263Z,21.30
2017-11-06T08:33:53.258Z,17.90
2017-11-06T08:34:53.250Z,18.90
2017-11-06T08:36:14.965Z,21.70
2017-11-06T08:36:53.242Z,20.40
2017-11-06T08:37:53.235Z,20.50
2017-11-06T08:38:53.226Z,20.70
2017-11-06T08:39:53.222Z,19.40
2017-11-06T08:40:53.218Z,21.20
2017-11-06T08:42:14.225Z,23.40
2017-11-06T08:42:53.203Z,18.10
2017-11-06T08:43:53.201Z,19.90
2017-11-06T08:44:53.193Z,19.20
2017-11-06T08:45:53.190Z,19.10
2017-11-06T08:46:53.183Z,24.20
2017-11-06T08:48:14.186Z,19.80
2017-11-06T08:48:53.170Z,19.80
2017-11-06T08:49:53.162Z,20.10
2017-11-06T08:50:53.165Z,18.30
2017-11-06T08:51:53.156Z,20.00
2017-11-06T08:52:53.149Z,20.40
2017-11-06T08:54:14.149Z,16.70
2017-11-06T08:54:53.134Z,18.60
2017-11-06T08:55:53.131Z,18.70
2017-11-06T08:56:53.125Z,18.90
2017-11-06T08:57:53.121Z,18.30
2017-11-06T08:58:53.113Z,19.30
2017-11-06T09:00:14.115Z,18.90
2017-11-06T09:00:53.102Z,21.20
2017-11-06T09:01:53.098Z,17.30
2017-11-06T09:02:53.088Z,16.50
2017-11-06T09:03:53.091Z,17.60
2017-11-06T09:04:53.079Z,18.70
2017-11-06T09:06:14.079Z,17.80
2017-11-06T09:06:53.066Z,19.40
2017-11-06T09:07:53.061Z,16.90
2017-11-06T09:08:53.060Z,18.30
2017-11-06T09:09:53.048Z,21.30
2017-11-06T09:10:53.044Z,19.30
2017-11-06T09:12:14.048Z,17.50
2017-11-06T09:12:53.036Z,18.40
2017-11-06T09:13:53.030Z,19.20
2017-11-06T09:14:53.022Z,19.20
2017-11-06T09:15:53.020Z,17.80
2017-11-06T09:16:53.012Z,19.00
2017-11-06T09:18:14.012Z,17.40
2017-11-06T09:18:53.006Z,17.90
2017-11-06T09:19:52.993Z,18.40
2017-11-06T09:20:52.989Z,19.20
2017-11-06T09:21:52.986Z,19.70
2017-11-06T09:22:52.980Z,19.90
2017-11-06T09:24:13.983Z,20.60
2017-11-06T09:24:52.964Z,19.30
2017-11-06T09:25:52.960Z,17.20
2017-11-06T09:26:52.956Z,19.60
2017-11-06T09:27:52.951Z,18.50
2017-11-06T09:28:52.948Z,17.10
2017-11-06T09:30:13.946Z,20.00
2017-11-06T09:30:52.936Z,18.90
2017-11-06T09:31:52.930Z,17.30
2017-11-06T09:32:52.931Z,17.10
2017-11-06T09:33:52.918Z,18.70
2017-11-06T09:34:52.913Z,17.10
2017-11-06T09:36:13.916Z,16.50
2017-11-06T09:36:52.903Z,15.00
2017-11-06T09:37:52.893Z,17.20
2017-11-06T09:38:52.891Z,17.90
2017-11-06T09:39:52.888Z,19.20
2017-11-06T09:40:52.884Z,17.60
2017-11-06T09:42:13.884Z,17.00
2017-11-06T09:42:52.867Z,18.00
2017-11-06T09:43:52.866Z,16.70
2017-11-06T09:44:52.859Z,18.60
2017-11-06T09:45:52.853Z,17.40
2017-11-06T09:46:52.850Z,17.00
2017-11-06T09:48:13.853Z,18.30
2017-11-06T09:48:52.841Z,17.90
2017-11-06T09:49:52.834Z,18.70
2017-11-06T09:50:52.824Z,19.70
2017-11-06T09:51:52.823Z,20.50
2017-11-06T09:52:52.815Z,19.00
2017-11-06T09:54:13.816Z,20.30
2017-11-06T09:54:52.807Z,20.20
2017-11-06T09:55:52.800Z,18.90
2017-11-06T09:56:52.796Z,18.90
2017-11-06T09:57:52.789Z,17.90
2017-11-06T09:58:52.783Z,18.80
2017-11-06T10:00:13.793Z,18.60
2017-11-06T10:00:52.775Z,18.20
2017-11-06T10:01:52.768Z,19.10
2017-11-06T10:02:52.760Z,18.00
2017-11-06T10:03:52.758Z,17.60
2017-11-06T10:04:52.752Z,18.40
2017-11-06T10:06:13.753Z,17.60
2017-11-06T10:06:52.745Z,21.80
2017-11-06T10:07:52.735Z,17.40
2017-11-06T10:08:52.733Z,17.40
2017-11-06T10:09:52.727Z,18.00
2017-11-06T10:10:52.720Z,21.40
2017-11-06T10:12:13.722Z,17.80
2017-11-06T10:12:52.715Z,18.80
2017-11-06T10:13:52.705Z,18.30
2017-11-06T10:14:52.699Z,19.20
2017-11-06T10:15:52.696Z,17.60
2017-11-06T10:16:52.691Z,16.50
2017-11-06T10:18:13.697Z,16.70
2017-11-06T10:18:52.679Z,15.30
2017-11-06T10:19:52.677Z,19.70
2017-11-06T10:20:52.667Z,17.80
2017-11-06T10:21:52.671Z,18.50
2017-11-06T10:22:52.658Z,17.40
2017-11-06T10:24:13.662Z,19.10
2017-11-06T10:24:52.647Z,18.00
2017-11-06T10:25:52.644Z,16.80
2017-11-06T10:26:52.644Z,18.50
2017-11-06T10:27:52.636Z,18.20
2017-11-06T10:28:52.630Z,16.00
2017-11-06T10:30:13.635Z,16.80
2017-11-06T10:30:52.625Z,16.30
2017-11-06T10:31:52.617Z,16.30
2017-11-06T10:32:52.612Z,15.20
2017-11-06T10:33:52.606Z,17.00
2017-11-06T10:34:52.599Z,16.50
2017-11-06T10:36:13.603Z,14.70
2017-11-06T10:36:52.589Z,17.60
2017-11-06T10:37:52.586Z,17.80
2017-11-06T10:38:52.584Z,14.50
2017-11-06T10:39:52.579Z,16.10
2017-11-06T10:40:52.573Z,17.10
2017-11-06T10:42:13.573Z,20.00
2017-11-06T10:42:52.563Z,17.40
2017-11-06T10:43:52.561Z,15.80
2017-11-06T10:44:52.572Z,19.50
2017-11-06T10:45:52.549Z,15.00
2017-11-06T10:46:52.543Z,19.50
2017-11-06T10:48:13.555Z,15.90
2017-11-06T10:48:52.533Z,15.20
2017-11-06T10:49:52.531Z,15.60
2017-11-06T10:50:52.526Z,14.20
2017-11-06T10:51:52.519Z,17.60
2017-11-06T10:52:52.514Z,15.80
2017-11-06T10:54:13.517Z,17.40
2017-11-06T10:54:52.506Z,15.80
2017-11-06T10:55:52.509Z,14.20
2017-11-06T10:56:52.498Z,13.70
2017-11-06T10:57:52.493Z,16.00
2017-11-06T10:58:52.489Z,16.70
2017-11-06T11:00:13.493Z,15.90
2017-11-06T11:00:52.480Z,15.60
2017-11-06T11:01:52.473Z,15.30
2017-11-06T11:02:52.470Z,15.20
2017-11-06T11:03:52.468Z,14.00
2017-11-06T11:04:52.463Z,14.10
2017-11-06T11:06:13.465Z,13.80
2017-11-06T11:06:52.451Z,15.10
2017-11-06T11:07:52.446Z,14.10
2017-11-06T11:08:52.444Z,15.50
2017-11-06T11:09:52.439Z,13.70
2017-11-06T11:10:52.441Z,12.90
2017-11-06T11:12:13.437Z,12.60
2017-11-06T11:12:52.425Z,11.60
2017-11-06T11:13:52.420Z,13.30
2017-11-06T11:14:52.418Z,11.90
2017-11-06T11:15:52.412Z,12.70
2017-11-06T11:16:52.408Z,15.20
2017-11-06T11:18:13.412Z,12.40
2017-11-06T11:18:52.401Z,11.40
2017-11-06T11:19:52.397Z,13.00
2017-11-06T11:20:52.393Z,14.50
2017-11-06T11:21:52.394Z,12.70
2017-11-06T11:22:52.381Z,15.20
2017-11-06T11:24:13.388Z,16.00
2017-11-06T11:24:52.374Z,17.30
2017-11-06T11:25:52.368Z,16.90
2017-11-06T11:26:52.366Z,12.70
2017-11-06T11:27:52.364Z,13.60
2017-11-06T11:28:52.359Z,14.00
2017-11-06T11:30:13.359Z,11.20
2017-11-06T11:30:52.353Z,12.20
2017-11-06T11:31:52.345Z,12.50
2017-11-06T11:32:52.340Z,12.60
2017-11-06T11:33:52.336Z,12.00
2017-11-06T11:34:52.330Z,13.10
2017-11-06T11:36:13.347Z,13.00
2017-11-06T11:36:52.322Z,13.50
2017-11-06T11:37:52.319Z,13.40
2017-11-06T11:38:52.313Z,15.30
2017-11-06T11:39:52.313Z,16.00
2017-11-06T11:40:52.321Z,12.90
2017-11-06T11:42:13.313Z,13.10
2017-11-06T11:42:52.293Z,15.70
2017-11-06T11:43:52.304Z,15.10
2017-11-06T11:44:52.289Z,15.10
2017-11-06T11:45:52.283Z,14.70
2017-11-06T11:46:52.277Z,13.00
2017-11-06T11:48:13.286Z,15.90
2017-11-06T11:48:52.276Z,15.50
2017-11-06T11:49:52.266Z,17.60
2017-11-06T11:50:52.268Z,14.60
2017-11-06T11:51:52.255Z,14.20
2017-11-06T11:52:52.252Z,13.50
2017-11-06T11:54:13.258Z,13.80
2017-11-06T11:54:52.245Z,13.60
2017-11-06T11:55:52.242Z,14.90
2017-11-06T11:56:52.234Z,15.30
2017-11-06T11:57:52.231Z,13.60
2017-11-06T11:58:52.229Z,12.30
2017-11-06T12:00:13.232Z,13.70
2017-11-06T12:00:52.222Z,13.10
2017-11-06T12:01:52.212Z,12.90
2017-11-06T12:02:52.210Z,12.80
2017-11-06T12:03:52.206Z,16.40
2017-11-06T12:04:52.205Z,14.90
2017-11-06T12:06:13.203Z,14.30
2017-11-06T12:06:52.191Z,13.60
2017-11-06T12:07:52.187Z,16.00
2017-11-06T12:08:52.185Z,17.30
2017-11-06T12:09:52.179Z,15.60
2017-11-06T12:10:52.178Z,13.40
2017-11-06T12:12:13.179Z,14.30
2017-11-06T12:12:52.166Z,15.00
2017-11-06T12:13:52.163Z,16.30
2017-11-06T12:14:52.160Z,12.50
2017-11-06T12:15:52.155Z,12.90
2017-11-06T12:16:52.151Z,15.20
2017-11-06T12:18:13.152Z,14.60
2017-11-06T12:18:52.143Z,14.30
2017-11-06T12:19:52.139Z,12.60
2017-11-06T12:20:52.135Z,15.60
2017-11-06T12:21:52.127Z,13.80
2017-11-06T12:22:52.139Z,14.10
2017-11-06T12:24:13.129Z,15.10
2017-11-06T12:24:52.118Z,13.80
2017-11-06T12:25:52.113Z,13.80
2017-11-06T12:26:52.111Z,13.70
2017-11-06T12:27:52.106Z,15.80
2017-11-06T12:28:52.102Z,14.30
2017-11-06T12:30:13.106Z,16.70
2017-11-06T12:30:52.093Z,17.50
2017-11-06T12:31:52.087Z,16.60
2017-11-06T12:32:52.083Z,15.70
2017-11-06T12:33:52.078Z,14.60
2017-11-06T12:34:52.080Z,16.20
2017-11-06T12:36:13.083Z,15.10
2017-11-06T12:36:52.067Z,13.70
2017-11-06T12:37:52.063Z,15.90
2017-11-06T12:38:52.067Z,13.60
2017-11-06T12:39:52.057Z,14.20
2017-11-06T12:40:52.052Z,14.20
2017-11-06T12:42:13.052Z,13.40
2017-11-06T12:42:52.041Z,16.10
2017-11-06T12:43:52.042Z,14.60
2017-11-06T12:44:52.033Z,14.70
2017-11-06T12:45:52.032Z,18.50
2017-11-06T12:46:52.029Z,17.80
2017-11-06T12:48:13.031Z,13.70
2017-11-06T12:48:52.019Z,14.20
2017-11-06T12:49:52.014Z,13.30
2017-11-06T12:50:52.009Z,15.80
2017-11-06T12:51:52.004Z,14.30
2017-11-06T12:52:52.002Z,16.60
2017-11-06T12:54:13.003Z,13.90